createdAt,value
2019-02-16T00:01:14.367Z,99.90
2019-02-16T00:03:43.696Z,99.90
2019-02-16T00:06:13.057Z,99.90
2019-02-16T00:08:42.383Z,99.50
2019-02-16T00:11:11.701Z,99.90
2019-02-16T00:13:41.076Z,99.90
2019-02-16T00:16:10.403Z,99.80
2019-02-16T00:18:39.721Z,99.60
2019-02-16T00:21:09.161Z,99.90
2019-02-16T00:23:38.487Z,99.90
2019-02-16T00:26:07.819Z,99.90
2019-02-16T00:28:37.171Z,99.80
2019-02-16T00:31:07.466Z,99.90
2019-02-16T00:33:36.861Z,99.90
2019-02-16T00:36:06.300Z,99.90
2019-02-16T00:38:35.631Z,99.90
2019-02-16T00:41:04.946Z,99.90
2019-02-16T00:43:34.306Z,99.90
2019-02-16T00:46:03.633Z,99.90
2019-02-16T00:48:32.957Z,99.90
2019-02-16T00:51:02.293Z,99.90
2019-02-16T00:53:31.684Z,99.90
2019-02-16T00:56:01.012Z,99.90
2019-02-16T00:58:30.377Z,99.90
2019-02-16T01:00:59.701Z,99.90
2019-02-16T01:03:29.028Z,99.90
2019-02-16T01:05:58.368Z,99.90
2019-02-16T01:08:27.706Z,99.90
2019-02-16T01:10:57.088Z,99.90
2019-02-16T01:13:26.412Z,99.90
2019-02-16T01:15:55.772Z,99.90
2019-02-16T01:18:25.089Z,99.90
2019-02-16T01:20:54.407Z,99.90
2019-02-16T01:23:23.750Z,99.80
2019-02-16T01:25:53.076Z,99.90
2019-02-16T01:28:22.396Z,99.90
2019-02-16T01:30:51.738Z,99.90
2019-02-16T01:33:21.059Z,99.90
2019-02-16T01:35:50.486Z,99.90
2019-02-16T01:38:19.879Z,99.90
2019-02-16T01:40:49.211Z,99.60
2019-02-16T01:43:18.678Z,99.90
2019-02-16T01:45:48.063Z,99.90
2019-02-16T01:48:17.422Z,99.90
2019-02-16T01:50:47.676Z,99.90
2019-02-16T01:53:17.006Z,99.90
2019-02-16T01:55:47.534Z,99.90
2019-02-16T01:58:17.058Z,99.90
2019-02-16T02:00:46.370Z,99.90
2019-02-16T02:03:15.697Z,99.90
2019-02-16T02:05:45.034Z,99.90
2019-02-16T02:08:14.362Z,99.90
2019-02-16T02:10:43.683Z,99.90
2019-02-16T02:13:13.011Z,99.90
2019-02-16T02:15:42.358Z,99.90
2019-02-16T02:18:11.689Z,99.90
2019-02-16T02:20:41.021Z,99.90
2019-02-16T02:23:10.361Z,99.90
2019-02-16T02:25:39.693Z,99.90
2019-02-16T02:28:09.020Z,99.90
2019-02-16T02:30:38.411Z,99.90
2019-02-16T02:33:07.843Z,99.90
2019-02-16T02:35:37.178Z,99.90
2019-02-16T02:38:06.500Z,99.90
2019-02-16T02:40:35.852Z,99.90
2019-02-16T02:43:05.163Z,99.90
2019-02-16T02:45:34.502Z,99.90
2019-02-16T02:48:03.882Z,99.90
2019-02-16T02:50:33.283Z,99.90
2019-02-16T02:53:02.632Z,99.90
2019-02-16T02:55:31.974Z,99.90
2019-02-16T02:58:01.304Z,99.90
2019-02-16T03:00:30.629Z,99.90
2019-02-16T03:02:59.991Z,99.90
2019-02-16T03:05:29.296Z,99.90
2019-02-16T03:07:58.624Z,99.90
2019-02-16T03:10:27.985Z,99.90
2019-02-16T03:12:57.300Z,99.90
2019-02-16T03:15:26.626Z,99.90
2019-02-16T03:17:55.986Z,99.90
2019-02-16T03:20:25.383Z,99.90
2019-02-16T03:23:17.505Z,99.90
2019-02-16T03:26:01.996Z,99.90
2019-02-16T03:28:52.613Z,99.90
2019-02-16T03:31:58.338Z,99.90
2019-02-16T03:34:33.310Z,99.90
2019-02-16T03:37:11.371Z,99.90
2019-02-16T03:39:42.462Z,99.90
2019-02-16T03:42:11.845Z,99.90
2019-02-16T03:44:41.257Z,99.90
2019-02-16T03:47:10.657Z,99.90
2019-02-16T03:49:40.053Z,99.90
2019-02-16T03:52:14.001Z,99.90
2019-02-16T03:54:40.590Z,99.90
2019-02-16T03:57:09.917Z,99.90
2019-02-16T03:59:39.247Z,99.90
2019-02-16T04:02:08.663Z,99.90
2019-02-16T04:04:37.988Z,99.90
2019-02-16T04:07:07.312Z,99.90
2019-02-16T04:09:36.698Z,99.90
2019-02-16T04:12:06.038Z,99.90
2019-02-16T04:14:35.351Z,99.90
2019-02-16T04:17:04.766Z,99.90
2019-02-16T04:19:34.095Z,99.90
2019-02-16T04:22:03.426Z,99.90
2019-02-16T04:24:32.785Z,99.80
2019-02-16T04:27:02.179Z,99.90
2019-02-16T04:29:31.519Z,99.90
2019-02-16T04:32:00.893Z,99.90
2019-02-16T04:34:30.202Z,99.90
2019-02-16T04:36:59.557Z,99.90
2019-02-16T04:39:28.905Z,99.90
2019-02-16T04:41:58.258Z,99.90
2019-02-16T04:44:27.615Z,99.90
2019-02-16T04:46:57.023Z,99.90
2019-02-16T04:49:26.361Z,99.90
2019-02-16T04:51:56.904Z,99.90
2019-02-16T04:54:26.233Z,99.90
2019-02-16T04:56:55.557Z,99.90
2019-02-16T04:59:24.911Z,99.90
2019-02-16T05:01:54.239Z,99.90
2019-02-16T05:04:23.555Z,99.90
2019-02-16T05:06:53.037Z,99.90
2019-02-16T05:09:22.373Z,99.90
2019-02-16T05:11:51.694Z,99.90
2019-02-16T05:14:21.121Z,99.90
2019-02-16T05:16:50.453Z,99.90
2019-02-16T05:19:19.873Z,99.90
2019-02-16T05:21:49.226Z,99.90
2019-02-16T05:24:18.550Z,99.90
2019-02-16T05:26:47.883Z,99.90
2019-02-16T05:29:17.234Z,99.90
2019-02-16T05:31:46.552Z,99.90
2019-02-16T05:34:15.880Z,99.90
2019-02-16T05:36:45.259Z,99.90
2019-02-16T05:39:14.585Z,99.90
2019-02-16T05:41:43.898Z,99.90
2019-02-16T05:44:13.244Z,99.90
2019-02-16T05:46:42.564Z,99.90
2019-02-16T05:49:11.892Z,99.90
2019-02-16T05:51:41.254Z,99.90
2019-02-16T05:54:10.577Z,99.90
2019-02-16T05:56:39.959Z,99.90
2019-02-16T05:59:09.313Z,99.90
2019-02-16T06:01:38.631Z,99.90
2019-02-16T06:04:08.042Z,99.90
2019-02-16T06:06:37.402Z,99.90
2019-02-16T06:09:06.788Z,99.90
2019-02-16T06:11:36.107Z,99.90
2019-02-16T06:14:05.484Z,99.90
2019-02-16T06:16:34.812Z,99.90
2019-02-16T06:19:04.138Z,99.90
2019-02-16T06:21:33.502Z,99.90
2019-02-16T06:24:02.813Z,99.90
2019-02-16T06:26:32.137Z,99.90
2019-02-16T06:29:01.490Z,99.90
2019-02-16T06:31:30.821Z,99.90
2019-02-16T06:34:00.149Z,99.90
2019-02-16T06:36:31.134Z,99.90
2019-02-16T06:39:00.590Z,99.90
2019-02-16T06:41:30.381Z,99.90
2019-02-16T06:43:59.787Z,99.90
2019-02-16T06:46:29.164Z,99.90
2019-02-16T06:48:58.486Z,99.90
2019-02-16T06:51:27.818Z,99.90
2019-02-16T06:53:57.177Z,99.90
2019-02-16T06:56:28.148Z,99.90
2019-02-16T06:58:57.492Z,99.90
2019-02-16T07:01:26.883Z,99.90
2019-02-16T07:03:56.203Z,99.90
2019-02-16T07:06:25.559Z,99.90
2019-02-16T07:08:54.904Z,99.90
2019-02-16T07:11:24.235Z,99.90
2019-02-16T07:13:53.645Z,99.90
2019-02-16T07:16:33.533Z,99.90
2019-02-16T07:19:04.620Z,99.90
2019-02-16T07:21:33.956Z,99.90
2019-02-16T07:24:03.358Z,99.90
2019-02-16T07:26:32.726Z,99.90
2019-02-16T07:29:03.086Z,99.90
2019-02-16T07:31:33.496Z,99.90
2019-02-16T07:34:02.819Z,99.90
2019-02-16T07:36:32.139Z,99.90
2019-02-16T07:39:01.494Z,99.90
2019-02-16T07:41:32.493Z,99.90
2019-02-16T07:44:03.467Z,99.90
2019-02-16T07:46:43.181Z,99.90
2019-02-16T07:49:20.099Z,99.90
2019-02-16T07:51:51.095Z,99.90
2019-02-16T07:54:24.817Z,99.90
2019-02-16T07:57:07.898Z,99.90
2019-02-16T07:59:38.869Z,99.90
2019-02-16T08:02:09.870Z,99.90
2019-02-16T08:04:47.013Z,99.90
2019-02-16T08:07:20.728Z,99.90
2019-02-16T08:10:03.869Z,99.90
2019-02-16T08:12:51.204Z,99.90
2019-02-16T08:15:37.171Z,99.90
2019-02-16T08:18:20.442Z,99.90
2019-02-16T08:20:54.114Z,99.90
2019-02-16T08:23:40.342Z,99.60
2019-02-16T08:26:09.662Z,99.90
2019-02-16T08:28:40.665Z,99.90
2019-02-16T08:31:29.842Z,99.80
2019-02-16T08:34:03.765Z,98.90
2019-02-16T08:36:34.758Z,99.20
2019-02-16T08:39:06.279Z,99.80
2019-02-16T08:41:43.298Z,99.50
2019-02-16T08:44:29.317Z,98.60
2019-02-16T08:47:00.314Z,98.70
2019-02-16T08:49:43.148Z,98.30
2019-02-16T08:52:19.666Z,97.50
2019-02-16T08:54:50.619Z,97.20
2019-02-16T08:57:24.645Z,97.50
2019-02-16T08:59:55.608Z,98.00
2019-02-16T09:02:26.627Z,98.30
2019-02-16T09:05:06.640Z,97.70
2019-02-16T09:07:49.620Z,97.10
2019-02-16T09:10:20.717Z,97.00
2019-02-16T09:12:51.723Z,96.60
2019-02-16T09:15:39.228Z,96.40
2019-02-16T09:18:26.617Z,96.40
2019-02-16T09:21:15.040Z,96.10
2019-02-16T09:23:46.261Z,96.00
2019-02-16T09:26:20.151Z,95.20
2019-02-16T09:28:56.996Z,95.50
2019-02-16T09:31:39.723Z,95.50
2019-02-16T09:34:19.354Z,95.10
2019-02-16T09:36:59.147Z,94.80
2019-02-16T09:39:39.277Z,95.50
2019-02-16T09:42:16.321Z,94.80
2019-02-16T09:44:47.283Z,94.80
2019-02-16T09:47:18.323Z,94.00
2019-02-16T09:49:49.383Z,94.10
2019-02-16T09:52:20.449Z,93.70
2019-02-16T09:55:03.248Z,92.90
2019-02-16T09:57:43.017Z,92.20
2019-02-16T10:00:19.906Z,91.30
2019-02-16T10:02:53.442Z,90.80
2019-02-16T10:05:24.513Z,90.60
2019-02-16T10:07:55.497Z,88.00
2019-02-16T10:10:26.479Z,89.50
2019-02-16T10:13:03.245Z,90.70
2019-02-16T10:15:49.261Z,90.30
2019-02-16T10:18:20.295Z,90.90
2019-02-16T10:20:57.420Z,89.60
2019-02-16T10:23:31.162Z,88.20
2019-02-16T10:26:04.911Z,86.90
2019-02-16T10:28:44.654Z,86.60
2019-02-16T10:31:16.622Z,86.70
2019-02-16T10:33:47.793Z,85.40
2019-02-16T10:36:24.809Z,85.30
2019-02-16T10:39:10.768Z,80.80
2019-02-16T10:41:50.856Z,79.10
2019-02-16T10:44:33.932Z,80.40
2019-02-16T10:47:07.648Z,78.60
2019-02-16T10:49:47.634Z,75.90
2019-02-16T10:52:18.670Z,79.80
2019-02-16T10:55:05.925Z,79.20
2019-02-16T10:57:40.046Z,72.40
2019-02-16T11:00:14.141Z,71.00
2019-02-16T11:03:00.222Z,71.00
2019-02-16T11:05:43.030Z,72.00
2019-02-16T11:08:14.012Z,69.50
2019-02-16T11:10:57.148Z,70.30
2019-02-16T11:13:36.802Z,69.60
2019-02-16T11:16:10.906Z,71.30
2019-02-16T11:18:47.909Z,69.90
2019-02-16T11:21:21.474Z,69.80
2019-02-16T11:24:09.088Z,72.40
2019-02-16T11:26:40.130Z,71.50
2019-02-16T11:29:27.218Z,72.60
2019-02-16T11:31:58.269Z,71.20
2019-02-16T11:34:31.970Z,67.90
2019-02-16T11:37:08.734Z,67.80
2019-02-16T11:39:45.507Z,70.10
2019-02-16T11:42:22.413Z,66.50
2019-02-16T11:44:56.358Z,65.70
2019-02-16T11:47:27.320Z,65.80
2019-02-16T11:50:13.118Z,65.80
2019-02-16T11:52:47.025Z,65.00
2019-02-16T11:55:23.782Z,64.40
2019-02-16T11:58:03.801Z,63.40
2019-02-16T12:00:40.448Z,61.40
2019-02-16T12:03:20.580Z,62.90
2019-02-16T12:06:00.716Z,62.10
2019-02-16T12:11:02.248Z,62.30
2019-02-16T12:13:36.181Z,62.90
2019-02-16T12:16:09.948Z,63.20
2019-02-16T12:18:40.934Z,63.00
2019-02-16T16:42:40.333Z,60.40
2019-02-16T16:45:11.395Z,63.80
2019-02-16T16:47:42.356Z,64.70
2019-02-16T16:50:28.340Z,64.40
2019-02-16T16:55:45.566Z,64.50
2019-02-16T16:58:19.197Z,66.30
2019-02-16T17:01:06.391Z,67.60
2019-02-16T17:03:37.358Z,67.20
2019-02-16T17:06:08.439Z,67.10
2019-02-16T17:08:39.413Z,66.70
2019-02-16T17:11:26.905Z,66.30
2019-02-16T17:14:00.587Z,66.20
2019-02-16T17:16:46.771Z,68.00
2019-02-16T17:37:15.602Z,68.00
2019-02-16T18:00:43.211Z,69.50
2019-02-16T18:03:16.976Z,75.10
2019-02-16T18:06:04.220Z,76.80
2019-02-16T18:08:38.096Z,76.50
2019-02-16T18:11:11.763Z,77.30
2019-02-16T18:13:42.768Z,77.60
2019-02-16T18:16:13.730Z,77.10
2019-02-16T18:19:01.116Z,77.30
2019-02-16T18:21:32.153Z,79.30
2019-02-16T18:24:09.185Z,79.30
2019-02-16T18:26:42.611Z,79.60
2019-02-16T18:29:16.113Z,80.20
2019-02-16T18:31:51.170Z,80.30
2019-02-16T18:34:28.377Z,81.50
2019-02-16T18:37:08.387Z,82.80
2019-02-16T18:39:39.558Z,83.40
2019-02-16T18:42:13.840Z,84.10
2019-02-16T18:44:47.614Z,83.10
2019-02-16T18:47:30.567Z,82.80
2019-02-16T18:50:01.572Z,83.30
2019-02-16T18:52:47.606Z,83.00
2019-02-16T18:55:34.806Z,83.50
2019-02-16T18:58:05.858Z,84.00
2019-02-16T19:00:42.889Z,83.50
2019-02-16T19:03:19.565Z,84.00
2019-02-16T19:05:53.629Z,84.00
2019-02-16T19:08:24.589Z,83.90
2019-02-16T19:11:12.099Z,84.20
2019-02-16T19:14:01.288Z,84.20
2019-02-16T19:16:34.939Z,84.50
2019-02-16T19:19:05.986Z,85.30
2019-02-16T19:21:39.647Z,86.30
2019-02-16T19:24:10.723Z,86.50
2019-02-16T19:26:56.687Z,87.70
2019-02-16T19:29:33.511Z,88.00
2019-02-16T19:32:14.754Z,88.00
2019-02-16T19:34:45.819Z,88.00
2019-02-16T19:37:28.732Z,89.00
2019-02-16T19:40:08.713Z,88.80
2019-02-16T19:42:39.748Z,89.00
2019-02-16T19:45:22.816Z,89.20
2019-02-16T19:48:09.894Z,89.10
2019-02-16T19:50:59.273Z,88.80
2019-02-16T19:53:30.298Z,90.00
2019-02-16T19:56:04.049Z,90.10
2019-02-16T19:58:37.986Z,90.40
2019-02-16T20:01:09.014Z,90.30
2019-02-16T20:03:43.016Z,90.60
2019-02-16T20:06:14.038Z,90.80
2019-02-16T20:08:51.120Z,91.40
2019-02-16T20:11:34.385Z,91.40
2019-02-16T20:14:08.315Z,92.10
2019-02-16T20:16:39.341Z,92.20
2019-02-16T20:19:19.352Z,91.90
2019-02-16T20:22:02.600Z,91.80
2019-02-16T20:24:46.620Z,92.00
2019-02-16T20:27:37.628Z,92.00
2019-02-16T20:30:26.175Z,92.30
2019-02-16T20:33:02.914Z,92.50
2019-02-16T20:35:36.826Z,92.00
2019-02-16T20:38:22.846Z,91.90
2019-02-16T20:41:00.068Z,92.10
2019-02-16T20:43:33.303Z,92.40
2019-02-16T20:46:03.712Z,92.30
2019-02-16T20:48:50.921Z,92.10
2019-02-16T20:51:30.721Z,92.00
2019-02-16T20:54:19.199Z,92.30
2019-02-16T20:57:02.273Z,92.10
2019-02-16T20:59:33.250Z,92.20
2019-02-16T21:02:10.046Z,92.60
2019-02-16T21:04:41.050Z,92.40
2019-02-16T21:07:14.501Z,92.60
2019-02-16T21:09:45.490Z,92.50
2019-02-16T21:12:22.515Z,92.60
2019-02-16T21:14:53.587Z,93.00
2019-02-16T21:17:27.613Z,93.00
2019-02-16T21:20:01.431Z,93.10
2019-02-16T21:22:32.462Z,93.30
2019-02-16T21:25:15.681Z,93.90
2019-02-16T21:27:58.278Z,93.90
2019-02-16T21:30:40.161Z,93.70
2019-02-16T21:33:17.201Z,93.80
2019-02-16T21:35:54.175Z,94.10
2019-02-16T21:38:27.845Z,94.00
2019-02-16T21:41:01.492Z,94.00
2019-02-16T21:43:47.464Z,94.20
2019-02-16T21:46:18.478Z,94.20
2019-02-16T21:48:49.554Z,93.90
2019-02-16T21:51:20.529Z,93.70
2019-02-16T21:53:57.637Z,93.90
2019-02-16T21:56:43.771Z,93.80
2019-02-16T21:59:23.512Z,94.00
2019-02-16T22:02:10.552Z,94.20
2019-02-16T22:04:56.534Z,95.10
2019-02-16T22:07:27.513Z,95.20
2019-02-16T22:10:04.869Z,95.10
2019-02-16T22:12:39.011Z,95.30
2019-02-16T22:15:09.308Z,95.90
2019-02-16T22:17:38.699Z,95.70
2019-02-16T22:20:10.292Z,95.30
2019-02-16T22:22:41.166Z,95.90
2019-02-16T22:25:10.809Z,95.60
2019-02-16T22:27:40.180Z,95.70
2019-02-16T22:30:10.737Z,96.10
2019-02-16T22:32:40.202Z,95.80
2019-02-16T22:35:09.666Z,96.00
2019-02-16T22:37:39.025Z,95.60
2019-02-16T22:40:09.093Z,95.60
2019-02-16T22:42:38.417Z,96.50
2019-02-16T22:45:10.507Z,96.80
2019-02-16T22:47:39.832Z,96.90
2019-02-16T22:50:10.699Z,97.10
2019-02-16T22:52:40.054Z,97.10
2019-02-16T22:55:10.507Z,97.10
2019-02-16T22:57:39.843Z,97.60
2019-02-16T23:00:17.057Z,97.10
2019-02-16T23:02:48.187Z,96.80
2019-02-16T23:05:17.660Z,96.90
2019-02-16T23:07:47.044Z,97.40
2019-02-16T23:10:16.451Z,97.50
2019-02-16T23:12:45.911Z,97.60
2019-02-16T23:15:15.490Z,97.40
2019-02-16T23:17:44.941Z,96.90
2019-02-16T23:20:14.353Z,97.00
2019-02-16T23:22:43.719Z,97.00
2019-02-16T23:25:13.115Z,96.70
2019-02-16T23:27:42.501Z,96.70
2019-02-16T23:30:12.469Z,97.10
2019-02-16T23:32:41.925Z,97.20
2019-02-16T23:35:11.324Z,97.20
2019-02-16T23:37:40.751Z,97.30
2019-02-16T23:40:10.205Z,97.70
2019-02-16T23:42:39.661Z,97.60
2019-02-16T23:45:10.149Z,97.50
2019-02-16T23:47:39.565Z,97.40
2019-02-16T23:50:11.095Z,97.60
2019-02-16T23:52:40.417Z,97.20
2019-02-16T23:55:10.923Z,97.40
2019-02-16T23:57:40.238Z,97.60
